Terminal Aerodrome Forecast
Issued by NWS

Home | Current Version | Previous Version | Graphics & Text | Print | Product List | Glossary On
Versions: 1 2 3 4 5 6 7 8 9 10 11 12 13 14 15 16 17
137
FTUS42 KMHX 050336 AAA
TAFOAJ
TAF AMD
KOAJ 050336Z 0504/0524 33012G19KT 5SM -RA SCT004 OVC007
     FM051200 32013G20KT P6SM SCT007 OVC015
     FM051600 34013G20KT P6SM SCT035
      AMD LTD TO CLD VIS AND WIND=

USA.gov is the U.S. government's official web portal to all federal, state and local government web resources and services.